Time;durP1;ratioP1;P1;durP2;ratioP2;P2;SDS_P1;SDS_P2;PMS_P1;PMS_P2;Temp;Humidity;BMP_temperature;BMP_pressure;BME280_temperature;BME280_humidity;BME280_pressure;Samples;Min_cycle;Max_cycle;Signal;HPM_P1;HPM_P2
2022/03/26 00:00:04;;;;;;;0.20;0.20;;;;;;;23.95;14.20;98727.78;5083155;28;20028;-72
2022/03/26 00:02:29;;;;;;;0.10;0.10;;;;;;;23.95;14.10;98716.88;5084130;28;20017;-72
2022/03/26 00:04:55;;;;;;;0.13;0.13;;;;;;;23.95;13.88;98705.97;5087023;28;20051;-72
2022/03/26 00:07:20;;;;;;;0.10;0.10;;;;;;;23.96;13.88;98708.38;5080472;28;20517;-72
2022/03/26 00:09:46;;;;;;;0.10;0.10;;;;;;;23.94;13.99;98699.69;5062660;28;20090;-73
2022/03/26 00:12:11;;;;;;;0.20;0.20;;;;;;;23.94;13.90;98704.34;5080745;28;20031;-72
2022/03/26 00:14:37;;;;;;;0.20;0.20;;;;;;;23.94;13.88;98701.59;5081584;28;20037;-72
2022/03/26 00:17:02;;;;;;;0.10;0.10;;;;;;;23.94;13.69;98698.88;5079393;28;20386;-72
2022/03/26 00:19:28;;;;;;;0.10;0.10;;;;;;;23.91;13.56;98691.34;5076351;28;20386;-72
2022/03/26 00:21:53;;;;;;;0.10;0.10;;;;;;;23.92;13.63;98693.78;5076474;28;20025;-72
2022/03/26 00:24:19;;;;;;;0.20;0.20;;;;;;;23.95;13.65;98692.31;5076438;28;20461;-72
2022/03/26 00:26:44;;;;;;;0.10;0.10;;;;;;;23.94;13.65;98687.97;5076022;28;20028;-73
2022/03/26 00:29:10;;;;;;;0.15;0.15;;;;;;;23.91;13.49;98677.72;5075941;28;20031;-73
2022/03/26 00:31:37;;;;;;;0.20;0.20;;;;;;;23.92;13.63;98677.41;5075865;28;20021;-72
2022/03/26 00:34:03;;;;;;;0.43;0.25;;;;;;;23.90;13.47;98673.38;5075881;28;20021;-72
2022/03/26 00:36:29;;;;;;;0.10;0.10;;;;;;;23.91;13.23;98689.41;5076095;28;20028;-72
2022/03/26 00:38:54;;;;;;;0.20;0.20;;;;;;;23.91;13.33;98666.81;5075676;28;20494;-72
2022/03/26 00:41:20;;;;;;;0.20;0.20;;;;;;;23.93;13.22;98672.75;5075766;28;20024;-72
2022/03/26 00:43:45;;;;;;;0.20;0.20;;;;;;;23.90;13.42;98665.97;5075555;28;20091;-71
2022/03/26 00:46:11;;;;;;;0.10;0.10;;;;;;;23.88;13.16;98657.31;5075659;28;20029;-71
2022/03/26 00:48:36;;;;;;;0.20;0.20;;;;;;;23.90;13.18;98660.53;5057752;28;20032;-72
2022/03/26 00:51:02;;;;;;;0.10;0.10;;;;;;;23.91;12.99;98669.53;5076236;28;20028;-72
2022/03/26 00:53:27;;;;;;;0.20;0.20;;;;;;;23.90;13.30;98657.78;5075773;28;20043;-72
2022/03/26 00:55:53;;;;;;;0.50;0.20;;;;;;;23.89;12.99;98650.75;5075535;28;20027;-72
2022/03/26 00:58:18;;;;;;;0.15;0.15;;;;;;;23.90;13.00;98655.06;5057467;28;20024;-73
2022/03/26 01:00:44;;;;;;;0.30;0.30;;;;;;;23.90;12.94;98640.63;5075374;28;20029;-72
2022/03/26 01:03:09;;;;;;;0.20;0.20;;;;;;;23.90;13.27;98649.63;5075354;28;20024;-74
2022/03/26 01:05:35;;;;;;;0.40;0.30;;;;;;;23.90;13.12;98657.00;5075293;28;20020;-73
2022/03/26 01:08:00;;;;;;;0.30;0.30;;;;;;;23.90;13.20;98644.16;5075096;28;20151;-73
2022/03/26 01:10:27;;;;;;;0.10;0.10;;;;;;;23.88;13.05;98645.59;5075226;28;20023;-72
2022/03/26 01:12:53;;;;;;;0.20;0.20;;;;;;;23.89;13.23;98639.03;5075203;28;20082;-73
2022/03/26 01:15:18;;;;;;;0.20;0.20;;;;;;;23.86;12.97;98643.19;5075444;28;20409;-74
2022/03/26 01:17:44;;;;;;;0.15;0.15;;;;;;;23.87;12.96;98625.72;5057294;28;20044;-74
2022/03/26 01:20:10;;;;;;;0.35;0.20;;;;;;;23.87;13.24;98635.81;5075006;28;20030;-74
2022/03/26 01:22:36;;;;;;;0.38;0.30;;;;;;;23.86;13.06;98629.56;5076092;28;20032;-74
2022/03/26 01:25:01;;;;;;;0.25;0.20;;;;;;;23.86;13.04;98623.31;5074933;28;20386;-74
2022/03/26 01:27:27;;;;;;;0.20;0.20;;;;;;;23.87;13.11;98622.16;5075128;28;20052;-73
2022/03/26 01:29:52;;;;;;;0.38;0.30;;;;;;;23.86;13.24;98613.19;5074728;28;20470;-73
2022/03/26 01:32:18;;;;;;;0.20;0.20;;;;;;;23.88;13.11;98621.84;5057064;28;20036;-73
2022/03/26 01:34:43;;;;;;;0.22;0.20;;;;;;;23.88;13.12;98612.88;5054712;28;20028;-73
2022/03/26 01:37:09;;;;;;;0.20;0.20;;;;;;;23.88;13.07;98621.06;5054932;28;20032;-72
2022/03/26 01:39:34;;;;;;;0.20;0.20;;;;;;;23.87;13.10;98616.72;5054658;28;20360;-72
2022/03/26 01:42:04;;;;;;;0.20;0.20;;;;;;;23.87;13.12;98622.16;5054596;28;20032;-72
2022/03/26 01:44:29;;;;;;;0.20;0.10;;;;;;;23.86;13.19;98615.13;5055617;28;20036;-72
2022/03/26 01:46:55;;;;;;;0.20;0.20;;;;;;;23.87;13.30;98624.91;5054695;28;20029;-72
2022/03/26 01:49:21;;;;;;;0.45;0.30;;;;;;;23.87;13.29;98612.09;5054792;28;20107;-72
2022/03/26 01:51:47;;;;;;;0.20;0.20;;;;;;;23.87;13.34;98616.72;5054688;28;20460;-72
2022/03/26 01:54:13;;;;;;;0.20;0.20;;;;;;;23.86;13.44;98606.94;5054761;28;20036;-72
2022/03/26 01:56:39;;;;;;;0.15;0.15;;;;;;;23.83;13.39;98599.38;5055229;28;20025;-72
2022/03/26 01:59:07;;;;;;;0.50;0.20;;;;;;;23.85;13.19;98602.59;5036802;28;20052;-73
2022/03/26 02:01:33;;;;;;;0.50;0.30;;;;;;;23.84;13.19;98601.00;5054113;28;20044;-72
2022/03/26 02:04:02;;;;;;;0.45;0.30;;;;;;;23.85;13.20;98611.56;5054122;28;20632;-72
2022/03/26 02:06:32;;;;;;;0.20;0.20;;;;;;;23.83;13.26;98608.38;5055991;28;20037;-72
2022/03/26 02:09:00;;;;;;;0.10;0.10;;;;;;;23.85;13.20;98613.50;5074413;28;20094;-72
2022/03/26 02:11:26;;;;;;;0.20;0.20;;;;;;;23.85;13.58;98608.84;5074364;28;20352;-72
2022/03/26 02:13:55;;;;;;;0.20;0.20;;;;;;;23.84;13.51;98607.25;5074232;28;20100;-71
2022/03/26 02:16:21;;;;;;;0.10;0.10;;;;;;;23.83;13.35;98611.09;5073890;28;20024;-71
2022/03/26 02:18:47;;;;;;;0.25;0.20;;;;;;;23.83;13.64;98594.72;5074216;28;20024;-72
2022/03/26 02:21:13;;;;;;;0.20;0.20;;;;;;;23.83;13.84;98594.72;5075218;28;20104;-72
2022/03/26 02:23:40;;;;;;;0.20;0.20;;;;;;;23.81;13.58;98603.22;5075977;28;20032;-72
2022/03/26 02:26:05;;;;;;;0.55;0.30;;;;;;;23.84;13.65;98601.00;5075455;28;20167;-72
2022/03/26 02:28:31;;;;;;;0.30;0.28;;;;;;;23.85;13.51;98608.06;5075581;28;20025;-74
2022/03/26 02:30:56;;;;;;;0.30;0.20;;;;;;;23.84;13.64;98604.53;5075400;28;20020;-73
2022/03/26 02:33:22;;;;;;;0.22;0.22;;;;;;;23.84;13.67;98601.81;5074892;28;20028;-74
2022/03/26 02:35:47;;;;;;;0.28;0.20;;;;;;;23.85;13.58;98597.13;5075019;28;20028;-73
2022/03/26 02:38:12;;;;;;;0.28;0.28;;;;;;;23.84;13.45;98595.56;5073862;28;20487;-73
2022/03/26 02:40:38;;;;;;;0.20;0.20;;;;;;;23.80;13.78;98590.69;5073935;28;20058;-73
2022/03/26 02:43:05;;;;;;;0.20;0.20;;;;;;;23.84;13.74;98598.28;5073844;28;20025;-73
2022/03/26 02:45:32;;;;;;;0.10;0.10;;;;;;;23.81;13.86;98586.84;5073889;28;20064;-74
2022/03/26 02:47:57;;;;;;;0.20;0.20;;;;;;;23.85;13.63;98597.13;5073420;28;20039;-73
2022/03/26 02:50:23;;;;;;;0.28;0.28;;;;;;;23.83;13.87;98585.75;5073749;28;20025;-73
2022/03/26 02:52:50;;;;;;;0.20;0.20;;;;;;;23.83;13.83;98580.28;5074131;28;20036;-74
2022/03/26 02:55:16;;;;;;;0.28;0.20;;;;;;;23.84;14.04;98581.91;5073887;28;20021;-73
2022/03/26 02:57:42;;;;;;;0.10;0.10;;;;;;;23.83;13.88;98577.56;5073788;28;20027;-74
2022/03/26 03:00:08;;;;;;;0.25;0.25;;;;;;;23.84;14.03;98573.72;5073483;28;20349;-73
2022/03/26 03:02:34;;;;;;;0.20;0.20;;;;;;;23.81;14.05;98565.03;5073426;28;20498;-73
2022/03/26 03:05:00;;;;;;;0.30;0.20;;;;;;;23.81;14.05;98567.75;5073757;28;20032;-73
2022/03/26 03:07:26;;;;;;;0.20;0.20;;;;;;;23.81;14.01;98570.50;5073395;28;20071;-71
2022/03/26 03:09:51;;;;;;;0.20;0.20;;;;;;;23.81;13.86;98558.78;5073360;28;20521;-72
2022/03/26 03:12:17;;;;;;;0.22;0.20;;;;;;;23.80;14.03;98563.44;5073336;28;20074;-72
2022/03/26 03:14:42;;;;;;;0.10;0.10;;;;;;;23.83;13.94;98555.75;5076620;28;20021;-72
2022/03/26 03:17:07;;;;;;;0.10;0.10;;;;;;;23.82;13.96;98549.50;5077251;28;20258;-72
2022/03/26 03:19:34;;;;;;;0.20;0.20;;;;;;;23.81;14.18;98554.13;5077646;28;20021;-73
2022/03/26 03:21:59;;;;;;;0.13;0.10;;;;;;;23.81;14.19;98543.22;5077474;28;20020;-72
2022/03/26 03:24:25;;;;;;;0.43;0.20;;;;;;;23.83;14.03;98550.28;5077221;28;20364;-72
2022/03/26 03:26:50;;;;;;;0.30;0.20;;;;;;;23.83;14.33;98555.75;5077002;28;20024;-72
2022/03/26 03:29:16;;;;;;;0.20;0.20;;;;;;;23.81;14.07;98556.06;5077467;28;20036;-72
2022/03/26 03:31:47;;;;;;;0.35;0.20;;;;;;;23.80;14.10;98557.16;5077001;28;20035;-72
2022/03/26 03:34:13;;;;;;;0.20;0.20;;;;;;;23.83;14.04;98553.03;5077328;28;20025;-72
2022/03/26 03:36:38;;;;;;;0.20;0.20;;;;;;;23.83;14.03;98550.28;5077353;28;20054;-73
2022/03/26 03:39:03;;;;;;;0.22;0.20;;;;;;;23.83;14.14;98561.19;5059018;28;20054;-72
2022/03/26 03:41:29;;;;;;;0.20;0.20;;;;;;;23.81;14.32;98561.53;5076866;28;20035;-72
2022/03/26 03:43:54;;;;;;;0.22;0.22;;;;;;;23.81;14.27;98548.69;5058952;28;20032;-72
2022/03/26 03:46:20;;;;;;;0.20;0.20;;;;;;;23.81;14.07;98537.75;5077025;28;20024;-72
2022/03/26 03:48:45;;;;;;;0.32;0.30;;;;;;;23.80;14.07;98547.06;5076599;28;20029;-72
2022/03/26 03:51:10;;;;;;;0.20;0.20;;;;;;;23.78;14.26;98532.94;5076512;28;20031;-73
2022/03/26 03:53:36;;;;;;;0.20;0.20;;;;;;;23.80;14.17;98536.16;5058736;28;20032;-72
2022/03/26 03:56:01;;;;;;;0.22;0.20;;;;;;;23.81;14.19;98535.03;5076887;28;20024;-74
2022/03/26 03:58:27;;;;;;;0.20;0.20;;;;;;;23.81;14.01;98534.25;5076821;28;20086;-74
2022/03/26 04:00:52;;;;;;;0.30;0.30;;;;;;;23.80;14.11;98536.16;5076849;28;20374;-74
2022/03/26 04:03:18;;;;;;;0.20;0.20;;;;;;;23.80;14.01;98536.16;5076737;28;20411;-73
2022/03/26 04:05:43;;;;;;;0.20;0.20;;;;;;;23.78;14.04;98527.50;5076715;28;20459;-74
2022/03/26 04:08:09;;;;;;;0.38;0.20;;;;;;;23.78;13.90;98532.94;5057287;28;20060;-74
2022/03/26 04:10:34;;;;;;;0.30;0.30;;;;;;;23.79;13.91;98528.28;5075445;28;20103;-73
2022/03/26 04:12:59;;;;;;;0.20;0.20;;;;;;;23.79;13.95;98531.00;5075971;28;20028;-73
2022/03/26 04:15:25;;;;;;;0.20;0.20;;;;;;;23.78;13.71;98532.94;5075134;28;20025;-73
2022/03/26 04:17:52;;;;;;;0.20;0.20;;;;;;;23.78;13.90;98538.41;5075355;28;20037;-72
2022/03/26 04:20:19;;;;;;;0.20;0.20;;;;;;;23.74;14.01;98537.41;5075038;28;20104;-73
2022/03/26 04:22:44;;;;;;;0.10;0.10;;;;;;;23.78;13.66;98543.03;5075339;28;20032;-74
2022/03/26 04:25:10;;;;;;;0.10;0.10;;;;;;;23.77;13.88;98541.44;5074880;28;20025;-74
2022/03/26 04:27:35;;;;;;;0.10;0.10;;;;;;;23.76;13.79;98548.81;5075209;28;20383;-74
2022/03/26 04:30:01;;;;;;;0.15;0.15;;;;;;;23.78;13.42;98552.03;5074832;28;20374;-74
2022/03/26 04:32:26;;;;;;;0.10;0.10;;;;;;;23.77;13.71;98553.16;5075097;28;20024;-73
2022/03/26 04:34:52;;;;;;;0.20;0.20;;;;;;;23.72;13.59;98561.47;5075066;28;20031;-73
2022/03/26 04:37:17;;;;;;;0.10;0.10;;;;;;;23.77;13.44;98555.88;5074776;28;20028;-72
2022/03/26 04:39:43;;;;;;;0.20;0.20;;;;;;;23.76;13.39;98556.97;5074648;28;20025;-72
2022/03/26 04:42:08;;;;;;;0.10;0.10;;;;;;;23.76;13.59;98562.44;5074748;28;20035;-72
2022/03/26 04:44:34;;;;;;;0.35;0.20;;;;;;;23.76;13.58;98553.47;5074972;28;20151;-72
2022/03/26 04:46:59;;;;;;;0.17;0.17;;;;;;;23.76;13.48;98562.44;5074673;28;20048;-72
2022/03/26 04:49:25;;;;;;;0.63;0.20;;;;;;;23.76;13.38;98556.19;5074696;28;20028;-72
2022/03/26 04:51:50;;;;;;;0.30;0.20;;;;;;;23.76;13.44;98567.88;5074896;28;20029;-72
2022/03/26 04:54:15;;;;;;;0.10;0.10;;;;;;;23.75;13.12;98552.66;5074836;28;20021;-72
2022/03/26 04:56:41;;;;;;;0.10;0.10;;;;;;;23.76;13.32;98562.44;5074439;28;20135;-72
2022/03/26 04:59:07;;;;;;;0.25;0.10;;;;;;;23.76;13.25;98576.06;5056464;28;20024;-72
2022/03/26 05:01:32;;;;;;;0.20;0.20;;;;;;;23.69;13.36;98553.94;5074425;28;20028;-71
2022/03/26 05:03:58;;;;;;;0.17;0.17;;;;;;;23.74;13.21;98548.31;5074695;28;20031;-72
2022/03/26 05:06:23;;;;;;;0.20;0.20;;;;;;;23.74;13.30;98563.91;5074147;28;20029;-72
2022/03/26 05:08:48;;;;;;;0.10;0.10;;;;;;;23.74;13.21;98570.13;5033369;28;1187010;-72
2022/03/26 05:11:15;;;;;;;0.20;0.20;;;;;;;23.72;13.20;98577.84;5075570;28;20394;-72
2022/03/26 05:13:40;;;;;;;0.20;0.20;;;;;;;23.74;13.27;98569.34;5075524;28;20078;-72
2022/03/26 05:16:07;;;;;;;0.10;0.10;;;;;;;23.72;12.88;98588.75;5075418;28;20451;-71
2022/03/26 05:18:33;;;;;;;0.10;0.10;;;;;;;23.72;12.97;98587.97;5075048;28;20020;-74
2022/03/26 05:20:59;;;;;;;0.60;0.20;;;;;;;23.73;12.97;98584.09;5075022;28;20040;-73
2022/03/26 05:23:25;;;;;;;0.10;0.10;;;;;;;23.73;13.05;98586.81;5075292;28;20032;-73
2022/03/26 05:25:50;;;;;;;0.25;0.13;;;;;;;23.72;13.08;98580.56;5075991;28;20024;-74
2022/03/26 05:28:16;;;;;;;0.10;0.10;;;;;;;23.74;12.95;98591.16;5075194;28;20085;-74
2022/03/26 05:30:42;;;;;;;0.10;0.10;;;;;;;23.73;12.89;98595.00;5074882;28;20033;-73
2022/03/26 05:33:08;;;;;;;0.17;0.17;;;;;;;23.70;12.92;98592.91;5055212;28;20025;-73
2022/03/26 05:35:33;;;;;;;0.10;0.10;;;;;;;23.72;12.89;98599.66;5054360;28;20368;-74
2022/03/26 05:38:00;;;;;;;0.10;0.10;;;;;;;23.72;12.88;98607.84;5054771;28;20044;-74
2022/03/26 05:40:25;;;;;;;0.10;0.10;;;;;;;23.68;12.69;98606.88;5054920;28;20032;-73
2022/03/26 05:42:50;;;;;;;0.10;0.10;;;;;;;23.74;13.08;98616.50;5054905;28;20466;-74
2022/03/26 05:45:17;;;;;;;0.10;0.10;;;;;;;23.74;12.94;98621.97;5054891;28;20468;-73
2022/03/26 05:47:42;;;;;;;0.10;0.10;;;;;;;23.72;12.83;98618.75;5054533;28;20029;-73
2022/03/26 05:50:09;;;;;;;0.10;0.10;;;;;;;23.71;12.76;98619.88;5054960;28;20025;-73
2022/03/26 05:52:35;;;;;;;0.10;0.10;;;;;;;23.73;12.83;98628.56;5054442;28;20112;-73
2022/03/26 05:55:00;;;;;;;0.10;0.10;;;;;;;23.73;12.69;98625.00;5054339;28;20036;-74
2022/03/26 05:57:26;;;;;;;0.10;0.10;;;;;;;23.71;12.96;98633.50;5054498;28;20029;-74
2022/03/26 05:59:51;;;;;;;0.13;0.13;;;;;;;23.70;12.79;98637.38;5054199;28;20411;-73
2022/03/26 06:02:16;;;;;;;0.10;0.10;;;;;;;23.72;12.86;98650.69;5054526;28;20036;-73
2022/03/26 06:04:42;;;;;;;0.00;0.00;;;;;;;23.72;12.62;98651.47;5055326;28;20025;-73
2022/03/26 06:07:08;;;;;;;0.10;0.10;;;;;;;23.72;12.68;98651.47;5041603;28;20126;-73
2022/03/26 06:09:37;;;;;;;1.35;0.10;;;;;;;23.73;12.77;98655.00;5074072;28;20582;-74
2022/03/26 06:12:04;;;;;;;0.10;0.10;;;;;;;23.64;12.70;98641.34;5074463;28;20106;-74
2022/03/26 06:14:29;;;;;;;0.20;0.10;;;;;;;23.70;12.51;98652.91;5074343;28;20159;-74
2022/03/26 06:16:55;;;;;;;0.10;0.10;;;;;;;23.71;12.56;98658.03;5074341;28;20067;-72
2022/03/26 06:19:20;;;;;;;0.10;0.10;;;;;;;23.71;12.48;98671.69;5074138;28;20031;-73
2022/03/26 06:21:46;;;;;;;0.20;0.20;;;;;;;23.71;12.76;98668.16;5073785;28;20070;-73
2022/03/26 06:24:12;;;;;;;0.38;0.28;;;;;;;23.72;12.61;98659.66;5056312;28;20028;-73
2022/03/26 06:26:39;;;;;;;0.38;0.20;;;;;;;23.72;12.57;98669.78;5074061;28;20356;-72
2022/03/26 06:29:05;;;;;;;0.20;0.20;;;;;;;23.72;12.50;98675.22;5074357;28;20029;-72
2022/03/26 06:31:30;;;;;;;0.10;0.10;;;;;;;23.71;12.63;98668.94;5073909;28;20028;-72
2022/03/26 06:33:56;;;;;;;0.10;0.10;;;;;;;23.72;12.57;98680.69;5073754;28;20491;-72
2022/03/26 06:36:22;;;;;;;0.10;0.10;;;;;;;23.67;12.55;98678.09;5073875;28;20462;-72
2022/03/26 06:38:50;;;;;;;0.15;0.15;;;;;;;23.71;12.53;98685.31;5073982;28;20386;-72
2022/03/26 06:41:18;;;;;;;0.10;0.10;;;;;;;23.71;12.50;98695.44;5073992;28;20443;-72
2022/03/26 06:43:44;;;;;;;0.10;0.10;;;;;;;23.71;12.82;98706.34;5073678;28;20463;-72
2022/03/26 06:46:09;;;;;;;0.73;0.13;;;;;;;23.73;12.42;98702.19;5073904;28;20028;-72
2022/03/26 06:48:35;;;;;;;0.10;0.10;;;;;;;23.72;12.69;98716.13;5073845;28;20509;-72
2022/03/26 06:51:01;;;;;;;0.10;0.10;;;;;;;23.71;12.68;98726.22;5074289;28;20036;-72
2022/03/26 06:53:30;;;;;;;0.10;0.10;;;;;;;23.69;12.69;98723.00;5073456;28;20467;-73
2022/03/26 06:55:55;;;;;;;0.10;0.10;;;;;;;23.70;12.62;98726.53;5074287;28;20028;-72
2022/03/26 06:58:21;;;;;;;0.10;0.10;;;;;;;23.71;12.79;98742.59;5074080;28;20043;-72
2022/03/26 07:00:46;;;;;;;0.20;0.20;;;;;;;23.72;12.59;98755.13;5074212;28;20074;-74
2022/03/26 07:03:12;;;;;;;0.10;0.10;;;;;;;23.75;12.49;98754.50;5074401;28;20482;-74
2022/03/26 07:05:37;;;;;;;0.10;0.10;;;;;;;23.73;12.74;98761.38;5074464;28;20028;-74
2022/03/26 07:08:04;;;;;;;0.10;0.10;;;;;;;23.75;12.57;98759.13;5061134;28;20472;-74
2022/03/26 07:10:29;;;;;;;0.10;0.10;;;;;;;23.74;12.55;98765.72;5054300;28;20103;-74
2022/03/26 07:12:55;;;;;;;0.20;0.20;;;;;;;23.70;12.66;98771.00;5054577;28;20029;-73
2022/03/26 07:15:20;;;;;;;0.10;0.10;;;;;;;23.71;12.57;98782.69;5054469;28;20021;-74
2022/03/26 07:17:46;;;;;;;0.10;0.10;;;;;;;23.71;12.64;98791.69;5054266;28;20025;-74
2022/03/26 07:20:11;;;;;;;0.10;0.10;;;;;;;23.69;12.62;98796.66;5053812;28;20021;-74
2022/03/26 07:22:37;;;;;;;0.10;0.10;;;;;;;23.67;12.67;98804.34;5053693;28;20044;-74
2022/03/26 07:25:04;;;;;;;0.20;0.20;;;;;;;23.62;12.68;98796.28;5053606;28;20388;-74
2022/03/26 07:27:32;;;;;;;0.10;0.10;;;;;;;23.71;12.35;98815.44;5053460;28;20029;-74
2022/03/26 07:29:58;;;;;;;0.10;0.10;;;;;;;23.69;12.53;98813.00;5053306;28;20029;-73
2022/03/26 07:32:25;;;;;;;0.10;0.10;;;;;;;23.68;12.68;98830.50;5052983;28;20037;-71
2022/03/26 07:34:51;;;;;;;0.10;0.10;;;;;;;23.69;12.30;98840.28;5035599;28;20029;-72
2022/03/26 07:37:17;;;;;;;0.10;0.10;;;;;;;23.71;12.24;98856.34;5052957;28;20029;-72
2022/03/26 07:39:42;;;;;;;0.17;0.17;;;;;;;23.70;12.13;98852.00;5053302;28;20024;-72
2022/03/26 07:42:07;;;;;;;0.10;0.10;;;;;;;23.70;12.09;98871.06;5053285;28;20135;-73
2022/03/26 07:44:33;;;;;;;0.10;0.10;;;;;;;23.72;12.24;98871.59;5052985;28;20025;-73
2022/03/26 07:46:58;;;;;;;0.10;0.10;;;;;;;23.70;12.14;98874.63;5053258;28;20067;-73
2022/03/26 07:49:24;;;;;;;0.10;0.10;;;;;;;23.69;12.16;98883.91;5053250;28;20411;-72
2022/03/26 07:51:49;;;;;;;0.10;0.10;;;;;;;23.69;12.41;98886.66;5053250;28;20375;-72
2022/03/26 07:54:15;;;;;;;0.10;0.10;;;;;;;23.68;12.08;98874.16;5052911;28;20448;-71
2022/03/26 07:56:40;;;;;;;0.10;0.10;;;;;;;23.70;12.03;98879.25;5052691;28;20024;-71
2022/03/26 07:59:06;;;;;;;0.15;0.15;;;;;;;23.71;11.91;98891.78;5053684;28;20025;-71
2022/03/26 08:01:31;;;;;;;0.10;0.10;;;;;;;23.70;11.91;98901.91;5056548;28;20075;-71
2022/03/26 08:03:57;;;;;;;0.10;0.10;;;;;;;23.69;12.11;98908.47;5056403;28;20033;-73
2022/03/26 08:06:23;;;;;;;0.75;0.43;;;;;;;23.69;12.05;98905.75;5056662;28;20032;-73
2022/03/26 08:08:48;;;;;;;0.10;0.10;;;;;;;23.68;12.00;98904.16;5075425;28;20134;-72
2022/03/26 08:11:13;;;;;;;0.10;0.10;;;;;;;23.69;12.01;98933.00;5076654;28;20413;-73
2022/03/26 08:13:39;;;;;;;0.10;0.10;;;;;;;23.69;11.89;98933.00;5076405;28;20024;-73
2022/03/26 08:16:07;;;;;;;0.10;0.10;;;;;;;23.70;11.96;98940.09;5076622;28;20410;-73
2022/03/26 08:18:33;;;;;;;0.10;0.10;;;;;;;23.56;11.59;98928.41;5076193;28;20567;-72
2022/03/26 08:20:58;;;;;;;0.10;0.10;;;;;;;23.69;11.96;98949.38;5058377;28;20054;-72
2022/03/26 08:23:24;;;;;;;0.10;0.10;;;;;;;23.71;11.94;98963.50;5076452;28;20017;-72
2022/03/26 08:28:33;;;;;;;0.10;0.10;;;;;;;23.72;11.80;98967.84;5076187;28;20043;-72
2022/03/26 08:30:58;;;;;;;0.10;0.10;;;;;;;23.70;11.74;98978.28;5076078;28;20032;-73
2022/03/26 08:33:24;;;;;;;0.10;0.10;;;;;;;23.70;12.01;98978.28;5075969;28;20039;-74
2022/03/26 08:35:49;;;;;;;0.10;0.10;;;;;;;23.69;11.88;99001.19;5075956;28;20016;-74
2022/03/26 08:38:15;;;;;;;0.10;0.10;;;;;;;23.70;11.83;99005.53;5075815;28;20021;-74
2022/03/26 08:40:40;;;;;;;0.10;0.10;;;;;;;23.68;12.10;99010.50;5075830;28;20043;-74
2022/03/26 08:43:06;;;;;;;0.10;0.10;;;;;;;23.66;11.76;99020.09;5076090;28;20029;-73
2022/03/26 08:45:31;;;;;;;0.10;0.10;;;;;;;23.69;11.94;99022.22;5058290;28;20431;-73
2022/03/26 08:47:57;;;;;;;0.10;0.10;;;;;;;23.70;12.02;99046.47;5075751;28;20033;-74
2022/03/26 08:50:23;;;;;;;0.10;0.10;;;;;;;23.68;11.97;99040.50;5076235;28;20032;-73
2022/03/26 08:52:49;;;;;;;0.10;0.10;;;;;;;23.68;11.89;99051.41;5075684;28;20498;-74
2022/03/26 08:55:15;;;;;;;0.10;0.10;;;;;;;23.67;11.88;99062.63;5075982;28;20107;-74
2022/03/26 08:57:41;;;;;;;0.10;0.10;;;;;;;23.68;12.04;99062.31;5075755;28;20023;-73
2022/03/26 09:00:07;;;;;;;0.10;0.10;;;;;;;23.66;11.95;99069.97;5075777;28;20017;-74
2022/03/26 09:02:32;;;;;;;0.10;0.10;;;;;;;23.68;12.11;99086.03;5075400;28;20025;-74
2022/03/26 09:04:58;;;;;;;0.10;0.10;;;;;;;23.67;11.98;99087.97;5075418;28;20067;-74
2022/03/26 09:07:23;;;;;;;0.10;0.10;;;;;;;23.68;12.28;99097.78;5075194;28;20048;-73
2022/03/26 09:09:49;;;;;;;0.10;0.10;;;;;;;23.70;11.96;99101.00;5075551;28;20029;-72
2022/03/26 09:12:14;;;;;;;0.10;0.10;;;;;;;23.67;12.01;99115.25;5074075;28;20455;-73
2022/03/26 09:14:39;;;;;;;0.10;0.10;;;;;;;23.69;12.30;99117.69;5075526;28;20068;-72
2022/03/26 09:17:05;;;;;;;0.10;0.10;;;;;;;23.67;12.07;99115.25;5075443;28;20427;-72
2022/03/26 09:19:30;;;;;;;0.20;0.20;;;;;;;23.69;12.09;99115.75;5075293;28;20522;-72
2022/03/26 09:21:56;;;;;;;0.10;0.10;;;;;;;23.68;12.48;99107.88;5075158;28;20020;-73
2022/03/26 09:24:23;;;;;;;0.20;0.10;;;;;;;23.68;12.22;99127.78;5075101;28;20025;-72
2022/03/26 09:26:48;;;;;;;0.10;0.10;;;;;;;23.67;11.97;99126.16;5074972;28;20028;-73
2022/03/26 09:29:14;;;;;;;0.10;0.10;;;;;;;23.69;12.34;99134.84;5075238;28;20020;-72
2022/03/26 09:31:39;;;;;;;0.10;0.10;;;;;;;23.60;12.04;99136.69;5071520;28;20371;-71
2022/03/26 09:34:04;;;;;;;0.10;0.10;;;;;;;23.70;12.23;99138.38;5055123;28;20467;-72
2022/03/26 09:36:30;;;;;;;0.10;0.10;;;;;;;23.69;12.14;99156.66;5055036;28;20459;-72
2022/03/26 09:38:55;;;;;;;0.52;0.10;;;;;;;23.69;11.95;99161.31;5055802;28;20491;-72
2022/03/26 09:41:22;;;;;;;0.10;0.10;;;;;;;23.65;11.88;99177.47;5054978;28;20478;-72
2022/03/26 09:43:48;;;;;;;0.10;0.10;;;;;;;23.68;12.10;99176.88;5054528;28;20028;-72
2022/03/26 09:46:14;;;;;;;0.10;0.10;;;;;;;23.68;11.98;99185.06;5054895;28;20029;-73
2022/03/26 09:48:39;;;;;;;0.20;0.20;;;;;;;23.70;11.88;99201.09;5054489;28;20419;-72
2022/03/26 09:51:05;;;;;;;0.10;0.10;;;;;;;23.67;11.91;99199.78;5054468;28;20094;-73
2022/03/26 09:53:31;;;;;;;0.10;0.10;;;;;;;23.68;11.75;99204.16;5036954;28;20482;-72
2022/03/26 09:55:57;;;;;;;0.10;0.10;;;;;;;23.66;11.90;99233.63;5054613;28;20025;-72
2022/03/26 09:58:22;;;;;;;0.10;0.10;;;;;;;23.69;11.71;99238.47;5054460;28;20452;-73
2022/03/26 10:00:48;;;;;;;0.10;0.10;;;;;;;23.70;11.82;99233.81;5054617;28;20025;-72
2022/03/26 10:03:13;;;;;;;0.10;0.10;;;;;;;23.65;11.92;99239.41;5054272;28;20029;-72
2022/03/26 10:05:39;;;;;;;0.10;0.10;;;;;;;23.65;11.94;99253.84;5054235;28;20033;-72
2022/03/26 10:08:37;;;;;;;0.10;0.10;;;;;;;23.77;11.76;99273.25;5067000;28;20093;-74
2022/03/26 10:11:04;;;;;;;0.30;0.20;;;;;;;23.68;12.01;99291.44;4992885;28;20425;-73
2022/03/26 10:13:37;;;;;;;0.10;0.10;;;;;;;23.67;11.68;99289.81;4992775;28;20082;-73
2022/03/26 10:16:04;;;;;;;0.13;0.13;;;;;;;23.69;11.85;99290.31;4992717;28;20034;-74
2022/03/26 10:18:37;;;;;;;0.10;0.10;;;;;;;23.68;11.65;99305.06;4992644;28;20477;-74
2022/03/26 10:21:03;;;;;;;0.10;0.10;;;;;;;23.68;11.58;99309.69;4992789;28;20174;-73
2022/03/26 10:23:29;;;;;;;0.10;0.10;;;;;;;23.68;11.70;99306.97;4992339;28;20050;-73
2022/03/26 10:26:11;;;;;;;0.10;0.10;;;;;;;23.65;11.50;99307.59;4992626;28;20030;-73
2022/03/26 10:28:37;;;;;;;0.10;0.10;;;;;;;23.68;11.35;99329.63;4976936;28;20105;-74
2022/03/26 10:34:10;;;;;;;0.10;0.10;;;;;;;23.66;11.49;99345.44;4992747;28;20572;-73
2022/03/26 10:36:36;;;;;;;0.10;0.10;;;;;;;23.66;11.28;99353.63;4992439;28;20030;-73
2022/03/26 10:39:02;;;;;;;0.10;0.10;;;;;;;23.65;11.18;99362.13;4992278;28;20026;-73
2022/03/26 10:41:30;;;;;;;0.10;0.10;;;;;;;23.62;11.32;99352.63;4992573;28;20023;-72
2022/03/26 10:44:07;;;;;;;0.10;0.10;;;;;;;23.68;11.10;99366.97;4992489;28;20157;-73
2022/03/26 10:46:43;;;;;;;0.10;0.10;;;;;;;23.66;11.12;99364.53;5021468;28;20045;-74
2022/03/26 10:49:08;;;;;;;0.13;0.13;;;;;;;23.61;11.17;99383.72;5054678;28;20120;-73
2022/03/26 10:51:38;;;;;;;0.10;0.10;;;;;;;23.67;10.88;99379.81;5059621;28;20033;-74
2022/03/26 10:54:12;;;;;;;0.10;0.10;;;;;;;23.64;10.95;99399.50;5059564;28;20029;-73
2022/03/26 10:56:38;;;;;;;0.22;0.10;;;;;;;23.65;11.06;99412.03;5059197;28;20208;-74
2022/03/26 10:59:04;;;;;;;0.10;0.10;;;;;;;23.64;10.96;99421.31;5061167;28;20052;-73
2022/03/26 11:01:29;;;;;;;0.10;0.10;;;;;;;23.66;11.08;99430.00;5041996;28;20092;-72
2022/03/26 11:03:55;;;;;;;0.10;0.10;;;;;;;23.66;10.99;99432.72;5061239;28;20033;-72
2022/03/26 11:06:24;;;;;;;0.10;0.10;;;;;;;23.66;10.73;99451.81;5060947;28;20047;-72
2022/03/26 11:08:50;;;;;;;0.20;0.20;;;;;;;23.66;11.10;99462.72;5058297;28;20494;-72
2022/03/26 11:11:15;;;;;;;0.10;0.10;;;;;;;23.65;10.85;99465.78;5041478;28;20021;-72
2022/03/26 11:13:51;;;;;;;0.10;0.10;;;;;;;23.65;11.08;99474.78;5039456;28;20042;-72
2022/03/26 11:16:34;;;;;;;0.10;0.10;;;;;;;23.66;10.89;99490.00;5020046;28;20503;-72
2022/03/26 11:19:15;;;;;;;0.20;0.20;;;;;;;23.66;10.99;99491.94;5035725;28;20137;-72
2022/03/26 11:21:56;;;;;;;0.10;0.10;;;;;;;23.67;11.04;99499.81;5035307;28;20055;-72
2022/03/26 11:24:49;;;;;;;0.10;0.10;;;;;;;23.67;11.08;99502.56;5036654;28;20053;-72
2022/03/26 11:27:36;;;;;;;0.10;0.10;;;;;;;23.67;10.79;99512.66;5035482;28;20029;-71
2022/03/26 11:30:03;;;;;;;0.10;0.10;;;;;;;23.66;11.04;99527.38;5031465;28;20025;-72
2022/03/26 11:32:34;;;;;;;0.10;0.10;;;;;;;23.62;10.79;99532.63;5041875;28;20112;-72
2022/03/26 11:35:08;;;;;;;0.10;0.10;;;;;;;23.66;10.95;99552.75;5037075;28;20052;-72